createdAt,value
2023-05-14T00:00:18.453Z,246.66
2023-05-14T00:01:18.490Z,248.83
2023-05-14T00:02:18.556Z,247.68
2023-05-14T00:03:18.730Z,247.87
2023-05-14T00:04:18.712Z,248.30
2023-05-14T00:05:18.789Z,247.31
2023-05-14T00:06:18.755Z,244.87
2023-05-14T00:07:18.792Z,246.25
2023-05-14T00:08:18.854Z,244.62
2023-05-14T00:09:18.871Z,246.89
2023-05-14T00:10:18.889Z,241.37
2023-05-14T00:11:18.939Z,242.32
2023-05-14T00:12:19.002Z,240.05
2023-05-14T00:13:19.040Z,239.17
2023-05-14T00:14:19.082Z,236.64
2023-05-14T00:15:19.111Z,235.45
2023-05-14T00:16:19.234Z,235.33
2023-05-14T00:17:19.277Z,233.03
2023-05-14T00:18:19.281Z,235.64
2023-05-14T00:19:19.365Z,235.82
2023-05-14T00:20:19.420Z,235.67
2023-05-14T00:21:19.503Z,234.14
2023-05-14T00:22:19.522Z,236.76
2023-05-14T00:23:19.536Z,233.91
2023-05-14T00:24:19.590Z,233.29
2023-05-14T00:25:19.638Z,236.62
2023-05-14T00:26:19.658Z,237.76
2023-05-14T00:27:19.718Z,233.07
2023-05-14T00:28:19.746Z,234.01
2023-05-14T00:29:19.785Z,235.96
2023-05-14T00:30:19.834Z,234.43
2023-05-14T00:31:19.958Z,238.19
2023-05-14T00:32:19.932Z,235.72
2023-05-14T00:33:19.972Z,237.73
2023-05-14T00:34:20.009Z,237.14
2023-05-14T00:35:20.064Z,238.73
2023-05-14T00:36:20.087Z,239.58
2023-05-14T00:37:20.144Z,236.80
2023-05-14T00:38:20.163Z,237.11
2023-05-14T00:39:20.230Z,234.67
2023-05-14T00:40:20.254Z,233.57
2023-05-14T00:41:20.276Z,232.85
2023-05-14T00:42:20.363Z,230.89
2023-05-14T00:43:20.376Z,231.37
2023-05-14T00:44:20.399Z,229.24
2023-05-14T00:45:20.445Z,227.36
2023-05-14T00:46:20.505Z,226.69
2023-05-14T00:47:20.534Z,223.89
2023-05-14T00:48:20.528Z,223.38
2023-05-14T00:49:20.580Z,224.92
2023-05-14T00:50:20.621Z,224.40
2023-05-14T00:51:20.674Z,225.91
2023-05-14T00:52:20.713Z,227.85
2023-05-14T00:53:20.747Z,228.01
2023-05-14T00:54:20.776Z,226.48
2023-05-14T00:55:20.830Z,224.70
2023-05-14T00:56:20.875Z,225.55
2023-05-14T00:57:20.919Z,225.31
2023-05-14T00:58:21.093Z,227.09
2023-05-14T00:59:21.209Z,226.72
2023-05-14T01:00:21.408Z,226.41
2023-05-14T01:01:21.347Z,227.46
2023-05-14T01:02:21.349Z,228.20
2023-05-14T01:03:21.493Z,226.53
2023-05-14T01:04:21.423Z,221.63
2023-05-14T01:05:21.449Z,221.35
2023-05-14T01:06:21.483Z,221.26
2023-05-14T01:07:21.511Z,220.36
2023-05-14T01:08:21.541Z,218.13
2023-05-14T01:09:21.570Z,218.43
2023-05-14T01:10:21.797Z,220.96
2023-05-14T01:11:21.609Z,221.04
2023-05-14T01:12:21.625Z,221.44
2023-05-14T01:13:21.667Z,220.02
2023-05-14T01:14:21.705Z,219.94
2023-05-14T01:15:21.730Z,220.64
2023-05-14T01:16:21.800Z,218.38
2023-05-14T01:17:21.804Z,221.21
2023-05-14T01:18:21.825Z,218.86
2023-05-14T01:19:21.850Z,220.52
2023-05-14T01:20:22.169Z,218.96
2023-05-14T01:21:21.927Z,218.22
2023-05-14T01:22:21.960Z,220.20
2023-05-14T01:23:21.992Z,224.22
2023-05-14T01:24:22.104Z,221.34
2023-05-14T01:25:22.022Z,222.47
2023-05-14T01:26:22.034Z,220.16
2023-05-14T01:27:22.055Z,221.70
2023-05-14T01:28:22.076Z,224.19
2023-05-14T01:29:22.098Z,223.25
2023-05-14T01:30:22.328Z,224.98
2023-05-14T01:31:22.205Z,224.87
2023-05-14T01:32:22.239Z,223.76
2023-05-14T01:33:22.256Z,223.95
2023-05-14T01:34:22.312Z,223.05
2023-05-14T01:35:22.346Z,221.80
2023-05-14T01:36:22.350Z,227.62
2023-05-14T01:37:22.396Z,223.56
2023-05-14T01:38:22.403Z,225.04
2023-05-14T01:39:22.409Z,226.83
2023-05-14T01:40:22.676Z,227.03
2023-05-14T01:41:22.468Z,226.39
2023-05-14T01:42:22.503Z,227.72
2023-05-14T01:43:22.545Z,224.93
2023-05-14T01:44:22.577Z,226.85
2023-05-14T01:45:22.625Z,227.32
2023-05-14T01:46:22.750Z,227.67
2023-05-14T01:47:22.746Z,226.89
2023-05-14T01:48:22.742Z,226.31
2023-05-14T01:49:22.780Z,229.13
2023-05-14T01:50:22.991Z,227.76
2023-05-14T01:51:22.850Z,231.18
2023-05-14T01:52:22.871Z,229.91
2023-05-14T01:53:22.926Z,225.19
2023-05-14T01:54:22.956Z,227.31
2023-05-14T01:55:23.032Z,228.10
2023-05-14T01:56:23.031Z,231.05
2023-05-14T01:57:23.041Z,228.77
2023-05-14T01:58:23.043Z,228.00
2023-05-14T01:59:23.104Z,227.18
2023-05-14T02:00:23.425Z,228.42
2023-05-14T02:01:23.203Z,231.31
2023-05-14T02:02:23.208Z,228.22
2023-05-14T02:03:23.170Z,227.22
2023-05-14T02:04:23.211Z,231.03
2023-05-14T02:05:23.216Z,227.86
2023-05-14T02:06:23.248Z,227.32
2023-05-14T02:07:23.279Z,228.12
2023-05-14T02:08:23.300Z,224.88
2023-05-14T02:09:23.347Z,224.41
2023-05-14T02:10:23.628Z,221.27
2023-05-14T02:11:23.387Z,226.21
2023-05-14T02:12:23.422Z,224.86
2023-05-14T02:13:23.436Z,223.84
2023-05-14T02:14:23.532Z,224.11
2023-05-14T02:15:23.485Z,224.96
2023-05-14T02:16:23.551Z,223.19
2023-05-14T02:17:23.552Z,222.81
2023-05-14T02:18:23.576Z,224.47
2023-05-14T02:19:23.600Z,223.82
2023-05-14T02:20:23.822Z,224.12
2023-05-14T02:21:23.689Z,222.66
2023-05-14T02:22:23.715Z,224.17
2023-05-14T02:23:34.076Z,223.70
2023-05-14T02:24:24.797Z,223.86
2023-05-14T02:25:23.829Z,224.01
2023-05-14T02:26:23.806Z,223.79
2023-05-14T02:27:23.747Z,221.73
2023-05-14T02:28:23.737Z,221.20
2023-05-14T02:29:23.739Z,219.44
2023-05-14T02:30:23.905Z,222.26
2023-05-14T02:31:23.744Z,223.56
2023-05-14T02:32:23.806Z,220.69
2023-05-14T02:33:23.780Z,220.01
2023-05-14T02:34:23.683Z,223.30
2023-05-14T02:35:23.748Z,222.16
2023-05-14T02:36:23.828Z,220.27
2023-05-14T02:37:23.832Z,219.40
2023-05-14T02:38:23.897Z,220.19
2023-05-14T02:39:23.959Z,223.09
2023-05-14T02:40:24.344Z,218.54
2023-05-14T02:41:24.057Z,221.77
2023-05-14T02:42:24.109Z,221.61
2023-05-14T02:43:24.173Z,217.66
2023-05-14T02:44:24.231Z,218.84
2023-05-14T02:45:24.301Z,217.77
2023-05-14T02:46:24.319Z,218.91
2023-05-14T02:47:24.357Z,224.02
2023-05-14T02:48:24.397Z,220.34
2023-05-14T02:49:24.385Z,218.19
2023-05-14T02:50:24.689Z,219.03
2023-05-14T02:51:24.425Z,218.38
2023-05-14T02:52:24.433Z,220.38
2023-05-14T02:53:24.501Z,218.68
2023-05-14T02:54:24.562Z,215.55
2023-05-14T02:55:24.591Z,216.66
2023-05-14T02:56:24.604Z,216.26
2023-05-14T02:57:24.777Z,219.98
2023-05-14T02:58:27.439Z,217.49
2023-05-14T02:59:24.712Z,219.23
2023-05-14T03:00:24.993Z,213.88
2023-05-14T03:01:24.730Z,213.71
2023-05-14T03:02:24.771Z,215.01
2023-05-14T03:03:24.691Z,213.04
2023-05-14T03:04:24.668Z,212.22
2023-05-14T03:05:24.679Z,216.24
2023-05-14T03:06:24.643Z,216.70
2023-05-14T03:07:24.657Z,212.89
2023-05-14T03:08:24.620Z,216.61
2023-05-14T03:09:24.624Z,218.46
2023-05-14T03:10:24.824Z,214.04
2023-05-14T03:11:24.632Z,211.24
2023-05-14T03:12:24.608Z,214.10
2023-05-14T03:13:24.599Z,212.14
2023-05-14T03:14:24.622Z,211.22
2023-05-14T03:15:24.636Z,211.88
2023-05-14T03:16:24.588Z,211.77
2023-05-14T03:17:24.589Z,213.32
2023-05-14T03:18:24.605Z,212.90
2023-05-14T03:19:24.562Z,212.49
2023-05-14T03:20:24.729Z,213.02
2023-05-14T03:21:24.539Z,213.18
2023-05-14T03:22:24.546Z,212.39
2023-05-14T03:23:24.525Z,216.18
2023-05-14T03:24:24.520Z,214.93
2023-05-14T03:25:24.528Z,212.48
2023-05-14T03:26:24.505Z,214.75
2023-05-14T03:27:24.492Z,213.91
2023-05-14T03:28:24.506Z,217.26
2023-05-14T03:29:24.498Z,211.65
2023-05-14T03:30:24.809Z,211.04
2023-05-14T03:31:24.518Z,214.41
2023-05-14T03:32:24.503Z,216.31
2023-05-14T03:33:24.484Z,213.65
2023-05-14T03:34:24.454Z,215.83
2023-05-14T03:35:24.483Z,214.65
2023-05-14T03:36:24.560Z,213.96
2023-05-14T03:37:24.628Z,209.51
2023-05-14T03:38:24.659Z,213.46
2023-05-14T03:39:24.717Z,213.62
2023-05-14T03:40:24.933Z,213.09
2023-05-14T03:41:24.826Z,213.15
2023-05-14T03:42:24.873Z,215.43
2023-05-14T03:43:24.892Z,211.95
2023-05-14T03:44:24.983Z,212.34
2023-05-14T03:45:25.016Z,210.81
2023-05-14T03:46:25.040Z,211.53
2023-05-14T03:47:25.138Z,211.06
2023-05-14T03:48:25.177Z,214.83
2023-05-14T03:49:25.137Z,213.41
2023-05-14T03:50:25.527Z,211.40
2023-05-14T03:51:25.224Z,212.64
2023-05-14T03:52:25.292Z,214.23
2023-05-14T03:53:25.328Z,211.20
2023-05-14T03:54:25.382Z,209.75
2023-05-14T03:55:25.419Z,213.91
2023-05-14T03:56:25.473Z,214.53
2023-05-14T03:57:25.569Z,212.45
2023-05-14T03:58:25.634Z,211.63
2023-05-14T03:59:25.673Z,214.29
2023-05-14T04:00:26.091Z,216.89
2023-05-14T04:01:25.750Z,216.17
2023-05-14T04:02:25.917Z,212.90
2023-05-14T04:03:26.019Z,213.52
2023-05-14T04:04:25.977Z,211.87
2023-05-14T04:05:25.865Z,210.78
2023-05-14T04:06:25.971Z,211.70
2023-05-14T04:07:25.973Z,211.65
2023-05-14T04:08:26.045Z,212.56
2023-05-14T04:09:26.069Z,210.75
2023-05-14T04:10:26.147Z,207.54
2023-05-14T04:11:26.201Z,207.25
2023-05-14T04:12:26.235Z,209.08
2023-05-14T04:13:26.279Z,209.33
2023-05-14T04:14:26.322Z,208.12
2023-05-14T04:15:26.365Z,210.45
2023-05-14T04:16:26.504Z,207.77
2023-05-14T04:17:26.537Z,208.63
2023-05-14T04:18:26.601Z,208.51
2023-05-14T04:19:26.618Z,208.93
2023-05-14T04:20:26.615Z,210.01
2023-05-14T04:21:26.645Z,206.29
2023-05-14T04:22:26.682Z,207.42
2023-05-14T04:23:26.723Z,208.92
2023-05-14T04:24:26.803Z,209.35
2023-05-14T04:25:26.853Z,208.44
2023-05-14T04:26:26.911Z,208.99
2023-05-14T04:27:26.970Z,209.28
2023-05-14T04:28:27.004Z,208.39
2023-05-14T04:29:27.013Z,208.43
2023-05-14T04:30:27.068Z,206.56
2023-05-14T04:31:27.135Z,207.95
2023-05-14T04:32:27.142Z,206.55
2023-05-14T04:33:27.179Z,203.48
2023-05-14T04:34:27.260Z,202.82
2023-05-14T04:35:27.280Z,201.15
2023-05-14T04:36:27.381Z,202.36
2023-05-14T04:37:27.373Z,202.94
2023-05-14T04:38:27.405Z,200.78
2023-05-14T04:39:27.462Z,202.37
2023-05-14T04:40:27.565Z,200.30
2023-05-14T04:41:27.538Z,195.63
2023-05-14T04:42:27.564Z,198.54
2023-05-14T04:43:27.626Z,199.41
2023-05-14T04:44:27.644Z,195.78
2023-05-14T04:45:27.681Z,197.55
2023-05-14T04:46:27.830Z,199.79
2023-05-14T04:47:27.826Z,198.79
2023-05-14T04:48:27.796Z,198.94
2023-05-14T04:49:27.828Z,196.89
2023-05-14T04:50:27.901Z,196.88
2023-05-14T04:51:27.921Z,196.16
2023-05-14T04:52:27.940Z,197.75
2023-05-14T04:53:27.968Z,194.59
2023-05-14T04:54:28.035Z,197.05
2023-05-14T04:55:28.064Z,192.07
2023-05-14T04:56:28.100Z,195.69
2023-05-14T04:57:28.128Z,191.94
2023-05-14T04:58:28.173Z,193.84
2023-05-14T04:59:28.223Z,192.11
2023-05-14T05:00:28.277Z,191.53
2023-05-14T05:01:28.377Z,193.06
2023-05-14T05:02:28.410Z,190.72
2023-05-14T05:03:28.479Z,189.01
2023-05-14T05:04:28.376Z,190.89
2023-05-14T05:05:28.384Z,189.65
2023-05-14T05:06:28.445Z,189.16
2023-05-14T05:07:28.482Z,189.67
2023-05-14T05:08:28.524Z,185.47
2023-05-14T05:09:28.551Z,189.02
2023-05-14T05:10:28.601Z,192.06
2023-05-14T05:11:28.648Z,193.96
2023-05-14T05:12:28.677Z,189.53
2023-05-14T05:13:28.703Z,185.66
2023-05-14T05:14:28.711Z,187.61
2023-05-14T05:15:28.748Z,189.18
2023-05-14T05:16:28.806Z,188.68
2023-05-14T05:17:28.840Z,185.44
2023-05-14T05:18:28.910Z,189.85
2023-05-14T05:19:39.545Z,184.81
2023-05-14T05:20:29.903Z,185.12
2023-05-14T05:21:28.915Z,186.03
2023-05-14T05:22:28.914Z,185.81
2023-05-14T05:23:28.898Z,186.25
2023-05-14T05:24:28.871Z,188.25
2023-05-14T05:25:28.885Z,183.94
2023-05-14T05:26:28.966Z,184.48
2023-05-14T05:27:28.870Z,184.76
2023-05-14T05:28:28.852Z,184.27
2023-05-14T05:29:28.900Z,182.79
2023-05-14T05:30:28.954Z,182.95
2023-05-14T05:31:29.089Z,183.67
2023-05-14T05:32:29.141Z,185.12
2023-05-14T05:33:29.094Z,185.23
2023-05-14T05:34:29.177Z,184.48
2023-05-14T05:35:29.217Z,186.74
2023-05-14T05:36:29.258Z,184.85
2023-05-14T05:37:29.274Z,180.81
2023-05-14T05:38:29.325Z,181.82
2023-05-14T05:39:29.476Z,182.09
2023-05-14T05:40:29.543Z,184.88
2023-05-14T05:41:29.727Z,185.18
2023-05-14T05:42:29.891Z,179.93
2023-05-14T05:43:29.956Z,178.36
2023-05-14T05:44:30.054Z,179.42
2023-05-14T05:45:30.053Z,173.76
2023-05-14T05:46:30.103Z,172.99
2023-05-14T05:47:30.163Z,173.80
2023-05-14T05:48:30.205Z,170.79
2023-05-14T05:49:30.255Z,169.85
2023-05-14T05:50:30.305Z,167.58
2023-05-14T05:51:30.372Z,174.50
2023-05-14T05:52:30.402Z,172.21
2023-05-14T05:53:30.537Z,169.12
2023-05-14T05:54:30.509Z,167.91
2023-05-14T05:55:30.490Z,168.99
2023-05-14T05:56:30.570Z,167.41
2023-05-14T05:57:30.617Z,170.74
2023-05-14T05:58:30.596Z,169.12
2023-05-14T05:59:30.663Z,174.12
2023-05-14T06:00:30.702Z,175.18
2023-05-14T06:01:30.719Z,169.08
2023-05-14T06:02:30.915Z,169.99
2023-05-14T06:03:30.777Z,168.93
2023-05-14T06:04:30.808Z,170.08
2023-05-14T06:05:30.881Z,164.59
2023-05-14T06:06:30.878Z,170.01
2023-05-14T06:07:30.961Z,168.93
2023-05-14T06:08:30.983Z,167.26
2023-05-14T06:09:31.015Z,169.65
2023-05-14T06:10:31.064Z,177.91
2023-05-14T06:11:31.125Z,177.67
2023-05-14T06:12:31.186Z,173.72
2023-05-14T06:13:31.239Z,175.53
2023-05-14T06:14:31.291Z,175.24
2023-05-14T06:15:31.410Z,171.44
2023-05-14T06:16:31.435Z,170.22
2023-05-14T06:17:31.501Z,169.82
2023-05-14T06:18:31.547Z,172.33
2023-05-14T06:19:31.545Z,167.51
2023-05-14T06:20:31.552Z,167.62
2023-05-14T06:21:31.596Z,166.83
2023-05-14T06:22:31.663Z,164.65
2023-05-14T06:23:31.725Z,171.28
2023-05-14T06:24:31.762Z,172.12
2023-05-14T06:25:31.806Z,166.82
2023-05-14T06:26:31.846Z,162.30
2023-05-14T06:27:31.886Z,161.44
2023-05-14T06:28:31.930Z,168.03
2023-05-14T06:29:31.954Z,165.99
2023-05-14T06:30:32.019Z,159.30
2023-05-14T06:31:32.118Z,155.28
2023-05-14T06:32:32.151Z,159.15
2023-05-14T06:33:32.148Z,161.41
2023-05-14T06:34:32.196Z,166.91
2023-05-14T06:35:32.209Z,168.84
2023-05-14T06:36:32.303Z,169.20
2023-05-14T06:37:32.247Z,163.43
2023-05-14T06:38:32.289Z,164.29
2023-05-14T06:39:32.333Z,162.14
2023-05-14T06:40:32.397Z,160.91
2023-05-14T06:41:32.373Z,158.00
2023-05-14T06:42:32.435Z,151.60
2023-05-14T06:43:32.482Z,157.67
2023-05-14T06:44:32.504Z,156.61
2023-05-14T06:45:33.256Z,161.54
2023-05-14T06:46:32.548Z,155.61
2023-05-14T06:47:32.599Z,150.01
2023-05-14T06:48:32.698Z,152.33
2023-05-14T06:49:32.660Z,155.68
2023-05-14T06:50:32.698Z,149.13
2023-05-14T06:51:32.733Z,146.06
2023-05-14T06:52:32.746Z,147.96
2023-05-14T06:53:32.765Z,147.99
2023-05-14T06:54:32.818Z,146.89
2023-05-14T06:55:32.839Z,151.19
2023-05-14T06:56:32.892Z,152.31
2023-05-14T06:57:32.941Z,150.98
2023-05-14T06:58:32.953Z,148.25
2023-05-14T06:59:32.986Z,147.48
2023-05-14T07:00:33.031Z,152.14
2023-05-14T07:01:33.121Z,144.26
2023-05-14T07:02:33.081Z,141.38
2023-05-14T07:03:33.150Z,139.88
2023-05-14T07:04:33.236Z,144.41
2023-05-14T07:05:33.227Z,147.62
2023-05-14T07:06:33.262Z,150.26
2023-05-14T07:07:33.285Z,149.67
2023-05-14T07:08:33.312Z,149.63
2023-05-14T07:09:33.380Z,146.66
2023-05-14T07:10:33.413Z,154.82
2023-05-14T07:11:33.483Z,152.68
2023-05-14T07:12:33.517Z,157.62
2023-05-14T07:13:33.569Z,160.26
2023-05-14T07:14:33.630Z,160.52
2023-05-14T07:15:33.686Z,158.38
2023-05-14T07:16:33.774Z,158.46
2023-05-14T07:17:33.808Z,158.93
2023-05-14T07:18:33.907Z,161.87
2023-05-14T07:19:33.880Z,156.50
2023-05-14T07:20:33.963Z,160.67
2023-05-14T07:21:34.002Z,157.56
2023-05-14T07:22:34.096Z,158.35
2023-05-14T07:23:34.186Z,160.00
2023-05-14T07:24:34.200Z,160.80
2023-05-14T07:25:34.243Z,157.95
2023-05-14T07:26:34.404Z,160.59
2023-05-14T07:27:34.464Z,160.75
2023-05-14T07:28:34.501Z,157.26
2023-05-14T07:29:34.563Z,155.42
2023-05-14T07:30:34.620Z,154.77
2023-05-14T07:31:34.825Z,158.72
2023-05-14T07:32:34.760Z,155.28
2023-05-14T07:33:34.791Z,152.07
2023-05-14T07:34:34.872Z,152.73
2023-05-14T07:35:34.913Z,155.31
2023-05-14T07:36:34.976Z,156.77
2023-05-14T07:37:35.061Z,160.40
2023-05-14T07:38:35.097Z,159.93
2023-05-14T07:39:35.136Z,165.71
2023-05-14T07:40:35.203Z,174.73
2023-05-14T07:41:35.229Z,179.97
2023-05-14T07:42:37.085Z,180.85
2023-05-14T07:43:35.342Z,190.18
2023-05-14T07:44:35.373Z,194.25
2023-05-14T07:45:35.437Z,203.18
2023-05-14T07:46:35.509Z,203.01
2023-05-14T07:47:35.622Z,203.62
2023-05-14T07:48:35.621Z,211.16
2023-05-14T07:49:35.613Z,210.50
2023-05-14T07:50:35.667Z,208.05
2023-05-14T07:51:35.718Z,213.09
2023-05-14T07:52:35.748Z,217.46
2023-05-14T07:53:35.776Z,214.13
2023-05-14T07:54:35.820Z,209.24
2023-05-14T07:55:35.872Z,205.16
2023-05-14T07:56:35.933Z,196.73
2023-05-14T07:57:35.966Z,193.43
2023-05-14T07:58:36.006Z,191.69
2023-05-14T07:59:36.059Z,184.28
2023-05-14T08:00:36.115Z,176.77
2023-05-14T08:01:37.763Z,172.66
2023-05-14T08:02:36.249Z,172.94
2023-05-14T08:03:36.191Z,168.65
2023-05-14T08:04:36.330Z,165.64
2023-05-14T08:05:36.117Z,165.59
2023-05-14T08:06:36.137Z,158.56
2023-05-14T08:07:36.087Z,157.91
2023-05-14T08:08:36.083Z,151.58
2023-05-14T08:09:36.101Z,150.38
2023-05-14T08:10:36.137Z,150.04
2023-05-14T08:11:36.095Z,146.59
2023-05-14T08:12:36.066Z,143.81
2023-05-14T08:13:36.062Z,143.70
2023-05-14T08:14:36.141Z,136.27
2023-05-14T08:15:36.056Z,137.66
2023-05-14T08:16:36.057Z,142.97
2023-05-14T08:17:36.034Z,138.26
2023-05-14T08:18:36.033Z,143.09
2023-05-14T08:19:36.037Z,135.54
2023-05-14T08:20:36.023Z,127.94
2023-05-14T08:21:36.017Z,133.21
2023-05-14T08:22:35.985Z,129.98
2023-05-14T08:23:36.002Z,133.43
2023-05-14T08:24:36.062Z,126.99
2023-05-14T08:25:35.985Z,127.77
2023-05-14T08:26:35.976Z,132.42
2023-05-14T08:27:35.968Z,128.51
2023-05-14T08:28:35.959Z,126.04
2023-05-14T08:29:35.933Z,130.61
2023-05-14T08:30:35.992Z,129.86
2023-05-14T08:31:35.920Z,135.31
2023-05-14T08:32:35.926Z,135.39
2023-05-14T08:33:35.922Z,141.54
2023-05-14T08:34:35.953Z,138.95
2023-05-14T08:35:35.890Z,136.26
2023-05-14T08:36:35.896Z,136.52
2023-05-14T08:37:35.887Z,137.19
2023-05-14T08:38:35.874Z,140.12
2023-05-14T08:39:35.865Z,138.83
2023-05-14T08:40:35.961Z,140.09
2023-05-14T08:41:35.864Z,139.59
2023-05-14T08:42:35.863Z,136.03
2023-05-14T08:43:35.833Z,141.51
2023-05-14T08:44:35.967Z,138.57
2023-05-14T08:45:35.852Z,139.40
2023-05-14T08:46:35.837Z,140.31
2023-05-14T08:47:35.816Z,141.55
2023-05-14T08:48:35.818Z,134.22
2023-05-14T08:49:35.804Z,138.47
2023-05-14T08:50:35.801Z,136.70
2023-05-14T08:51:35.775Z,137.61
2023-05-14T08:52:35.798Z,139.38
2023-05-14T08:53:35.766Z,139.46
2023-05-14T08:54:35.750Z,134.40
2023-05-14T08:55:35.748Z,136.91
2023-05-14T08:56:35.743Z,135.54
2023-05-14T08:57:35.750Z,139.75
2023-05-14T08:58:35.732Z,133.49
2023-05-14T08:59:35.734Z,139.24
2023-05-14T09:00:35.718Z,138.24
2023-05-14T09:01:35.741Z,137.88
2023-05-14T09:02:35.762Z,133.60
2023-05-14T09:03:35.727Z,133.80
2023-05-14T09:04:35.702Z,131.88
2023-05-14T09:05:35.693Z,128.91
2023-05-14T09:06:35.689Z,125.07
2023-05-14T09:07:35.683Z,129.98
2023-05-14T09:08:35.671Z,125.82
2023-05-14T09:09:35.688Z,128.65
2023-05-14T09:10:35.710Z,133.03
2023-05-14T09:11:35.756Z,126.20
2023-05-14T09:12:35.768Z,126.16
2023-05-14T09:13:35.808Z,125.79
2023-05-14T09:14:35.818Z,130.38
2023-05-14T09:15:35.855Z,126.99
2023-05-14T09:16:35.905Z,130.61
2023-05-14T09:17:35.980Z,132.38
2023-05-14T09:18:35.941Z,131.19
2023-05-14T09:19:35.946Z,134.14
2023-05-14T09:20:35.999Z,134.91
2023-05-14T09:21:35.981Z,135.95
2023-05-14T09:22:36.025Z,140.96
2023-05-14T09:23:36.034Z,139.08
2023-05-14T09:24:36.043Z,137.62
2023-05-14T09:25:36.092Z,137.78
2023-05-14T09:26:36.092Z,136.33
2023-05-14T09:27:36.116Z,133.20
2023-05-14T09:28:36.107Z,132.78
2023-05-14T09:29:36.125Z,132.61
2023-05-14T09:30:36.159Z,140.61
2023-05-14T09:31:36.169Z,143.16
2023-05-14T09:32:36.138Z,141.85
2023-05-14T09:33:36.127Z,143.30
2023-05-14T09:34:36.115Z,139.08
2023-05-14T09:35:36.123Z,140.77
2023-05-14T09:36:36.163Z,142.61
2023-05-14T09:37:36.168Z,146.11
2023-05-14T09:38:36.175Z,143.10
2023-05-14T09:39:36.207Z,144.94
2023-05-14T09:40:36.220Z,143.19
2023-05-14T09:41:36.237Z,138.47
2023-05-14T09:42:36.240Z,137.00
2023-05-14T09:43:36.274Z,138.02
2023-05-14T09:44:36.279Z,138.51
2023-05-14T09:45:36.278Z,139.32
2023-05-14T09:46:36.302Z,140.53
2023-05-14T09:47:36.433Z,138.92
2023-05-14T09:48:36.384Z,137.97
2023-05-14T09:49:36.369Z,135.42
2023-05-14T09:50:36.374Z,134.58
2023-05-14T09:51:36.387Z,135.00
2023-05-14T09:52:36.418Z,134.05
2023-05-14T09:53:36.396Z,130.48
2023-05-14T09:54:36.406Z,131.18
2023-05-14T09:55:36.446Z,128.45
2023-05-14T09:56:36.454Z,128.90
2023-05-14T09:57:36.457Z,129.19
2023-05-14T09:58:36.480Z,130.93
2023-05-14T09:59:36.484Z,125.71
2023-05-14T10:00:36.478Z,125.74
2023-05-14T10:01:36.577Z,125.93
2023-05-14T10:02:36.530Z,129.46
2023-05-14T10:03:36.540Z,125.24
2023-05-14T10:04:36.619Z,126.42
2023-05-14T10:05:36.570Z,125.60
2023-05-14T10:06:36.583Z,126.05
2023-05-14T10:07:36.591Z,125.29
2023-05-14T10:08:36.599Z,118.47
2023-05-14T10:09:36.628Z,119.97
2023-05-14T10:10:36.599Z,120.53
2023-05-14T10:11:36.634Z,120.09
2023-05-14T10:12:36.600Z,120.27
2023-05-14T10:13:36.632Z,118.09
2023-05-14T10:14:36.624Z,118.31
2023-05-14T10:15:36.634Z,118.49
2023-05-14T10:16:36.654Z,126.29
2023-05-14T10:17:36.739Z,121.70
2023-05-14T10:18:36.708Z,122.93
2023-05-14T10:19:36.694Z,120.58
2023-05-14T10:20:36.698Z,121.36
2023-05-14T10:21:36.682Z,124.83
2023-05-14T10:22:36.712Z,124.33
2023-05-14T10:23:36.732Z,121.13
2023-05-14T10:24:36.711Z,123.19
2023-05-14T10:25:36.721Z,123.20
2023-05-14T10:26:36.723Z,119.46
2023-05-14T10:27:36.728Z,114.71
2023-05-14T10:28:36.733Z,115.67
2023-05-14T10:29:36.760Z,116.70
2023-05-14T10:30:36.767Z,117.58
2023-05-14T10:31:36.865Z,118.45
2023-05-14T10:32:36.833Z,120.06
2023-05-14T10:33:36.772Z,121.88
2023-05-14T10:34:36.782Z,119.57
2023-05-14T10:35:36.799Z,110.94
2023-05-14T10:36:36.786Z,112.42
2023-05-14T10:37:36.773Z,111.62
2023-05-14T10:38:36.800Z,110.66
2023-05-14T10:39:36.792Z,108.65
2023-05-14T10:40:36.764Z,109.84
2023-05-14T10:41:36.779Z,105.36
2023-05-14T10:42:36.814Z,106.16
2023-05-14T10:43:36.809Z,104.12
2023-05-14T10:44:36.818Z,107.98
2023-05-14T10:45:36.814Z,107.67
2023-05-14T10:46:36.872Z,105.01
2023-05-14T10:47:36.867Z,108.83
2023-05-14T10:48:36.804Z,107.45
2023-05-14T10:49:43.291Z,104.27
2023-05-14T10:50:37.809Z,104.42
2023-05-14T10:51:36.910Z,105.06
2023-05-14T10:52:36.822Z,104.37
2023-05-14T10:53:36.791Z,99.83
2023-05-14T10:54:36.774Z,99.98
2023-05-14T10:55:36.771Z,99.12
2023-05-14T10:56:36.768Z,104.57
2023-05-14T10:57:36.743Z,107.62
2023-05-14T10:58:36.751Z,104.86
2023-05-14T10:59:36.748Z,104.86
2023-05-14T11:00:36.732Z,106.14
2023-05-14T11:01:36.750Z,107.38
2023-05-14T11:02:36.715Z,107.45
2023-05-14T11:03:36.757Z,108.09
2023-05-14T11:04:36.736Z,105.51
2023-05-14T11:05:36.685Z,102.09
2023-05-14T11:06:36.679Z,102.46
2023-05-14T11:07:36.696Z,101.70
2023-05-14T11:08:36.673Z,101.82
2023-05-14T11:09:36.680Z,99.49
2023-05-14T11:10:36.683Z,97.79
2023-05-14T11:11:36.656Z,94.47
2023-05-14T11:12:36.674Z,94.50
2023-05-14T11:13:36.653Z,98.49
2023-05-14T11:14:36.644Z,95.15
2023-05-14T11:15:36.647Z,104.11
2023-05-14T11:16:36.661Z,103.51
2023-05-14T11:17:36.663Z,102.85
2023-05-14T11:18:36.626Z,99.96
2023-05-14T11:19:36.601Z,98.92
2023-05-14T11:20:36.604Z,103.41
2023-05-14T11:21:36.617Z,101.27
2023-05-14T11:22:36.594Z,93.49
2023-05-14T11:23:36.578Z,99.95
2023-05-14T11:24:36.570Z,97.41
2023-05-14T11:25:36.560Z,98.69
2023-05-14T11:26:36.582Z,102.48
2023-05-14T11:27:36.563Z,101.09
2023-05-14T11:28:36.539Z,103.62
2023-05-14T11:29:36.543Z,108.51
2023-05-14T11:30:36.543Z,107.16
2023-05-14T11:31:36.566Z,101.29
2023-05-14T11:32:36.581Z,98.78
2023-05-14T11:33:36.520Z,100.20
2023-05-14T11:34:36.500Z,101.09
2023-05-14T11:35:36.506Z,100.12
2023-05-14T11:36:36.478Z,97.11
2023-05-14T11:37:36.497Z,97.83
2023-05-14T11:38:36.474Z,98.17
2023-05-14T11:39:36.462Z,100.02
2023-05-14T11:40:36.481Z,102.07
2023-05-14T11:41:36.485Z,105.11
2023-05-14T11:42:36.509Z,99.25
2023-05-14T11:43:36.510Z,92.89
2023-05-14T11:44:36.522Z,92.60
2023-05-14T11:45:36.548Z,91.02
2023-05-14T11:46:36.664Z,89.56
2023-05-14T11:47:36.613Z,89.41
2023-05-14T11:48:36.565Z,91.78
2023-05-14T11:49:36.596Z,95.26
2023-05-14T11:50:36.620Z,93.57
2023-05-14T11:51:36.617Z,92.11
2023-05-14T11:52:36.641Z,88.21
2023-05-14T11:53:36.679Z,81.62
2023-05-14T11:54:36.699Z,82.34
2023-05-14T11:55:36.720Z,83.01
2023-05-14T11:56:36.735Z,84.14
2023-05-14T11:57:36.799Z,83.13
2023-05-14T11:58:36.806Z,85.50
2023-05-14T11:59:36.802Z,82.63
2023-05-14T12:00:36.832Z,86.30
2023-05-14T12:01:36.866Z,87.96
2023-05-14T12:02:37.013Z,86.16
2023-05-14T12:03:37.072Z,86.49
2023-05-14T12:04:36.981Z,85.54
2023-05-14T12:05:36.942Z,79.31
2023-05-14T12:06:37.008Z,77.42
2023-05-14T12:07:37.026Z,90.71
2023-05-14T12:08:37.041Z,87.94
2023-05-14T12:09:37.070Z,86.43
2023-05-14T12:10:37.095Z,95.56
2023-05-14T12:11:37.173Z,93.77
2023-05-14T12:12:37.411Z,93.61
2023-05-14T12:13:37.214Z,90.45
2023-05-14T12:14:37.247Z,87.92
2023-05-14T12:15:37.275Z,88.38
2023-05-14T12:16:38.509Z,88.04
2023-05-14T12:17:37.389Z,93.82
2023-05-14T12:18:37.495Z,84.95
2023-05-14T12:19:37.417Z,83.14
2023-05-14T12:20:37.435Z,82.82
2023-05-14T12:21:37.479Z,84.61
2023-05-14T12:22:37.504Z,86.89
2023-05-14T12:23:37.518Z,87.66
2023-05-14T12:24:37.562Z,91.21
2023-05-14T12:25:37.593Z,89.03
2023-05-14T12:26:37.609Z,90.31
2023-05-14T12:27:37.647Z,93.37
2023-05-14T12:28:38.660Z,99.60
2023-05-14T12:29:37.708Z,96.45
2023-05-14T12:30:37.714Z,92.33